createdAt,value
2019-02-17T00:08:31.003Z,11.50
2019-02-17T00:18:35.018Z,8.70
2019-02-17T00:28:39.026Z,11.53
2019-02-17T00:38:43.575Z,10.17
2019-02-17T00:48:47.428Z,8.93
2019-02-17T00:58:51.183Z,8.83
2019-02-17T01:08:55.201Z,10.87
2019-02-17T01:18:59.494Z,8.97
2019-02-17T01:29:03.271Z,9.57
2019-02-17T01:39:08.133Z,10.90
2019-02-17T01:49:12.168Z,10.23
2019-02-17T01:59:15.930Z,9.50
2019-02-17T02:09:20.295Z,7.60
2019-02-17T02:19:25.503Z,7.53
2019-02-17T02:29:29.613Z,8.03
2019-02-17T02:39:33.653Z,10.53
2019-02-17T02:49:37.936Z,15.03
2019-02-17T02:59:52.199Z,12.60
2019-02-17T03:09:47.514Z,18.10
2019-02-17T03:19:51.574Z,17.63
2019-02-17T03:30:04.390Z,17.10
2019-02-17T03:40:01.157Z,17.17
2019-02-17T03:50:05.790Z,12.57
2019-02-17T04:00:16.886Z,19.93
2019-02-17T04:10:15.484Z,17.30
2019-02-17T04:20:19.270Z,14.70
2019-02-17T04:30:29.304Z,17.10
2019-02-17T04:40:28.819Z,17.53
2019-02-17T04:50:32.910Z,15.50
2019-02-17T05:00:40.443Z,18.17
2019-02-17T05:10:44.444Z,15.67
2019-02-17T05:20:48.562Z,14.93
2019-02-17T05:30:53.486Z,11.40
2019-02-17T05:40:57.727Z,19.57
2019-02-17T05:51:02.124Z,14.80
2019-02-17T06:01:07.407Z,18.80
2019-02-17T06:11:11.709Z,10.57
2019-02-17T06:21:15.849Z,13.43
2019-02-17T06:31:20.158Z,15.83
2019-02-17T06:41:24.215Z,19.33
2019-02-17T06:51:28.784Z,19.00
2019-02-17T07:01:32.821Z,22.03
2019-02-17T07:11:37.395Z,18.13
2019-02-17T07:21:41.250Z,21.07
2019-02-17T07:31:45.593Z,21.77
2019-02-17T07:41:49.366Z,24.60
2019-02-17T07:51:53.128Z,26.87
2019-02-17T08:01:56.886Z,30.10
2019-02-17T08:12:00.942Z,32.13
2019-02-17T08:22:05.013Z,33.67
2019-02-17T08:32:09.058Z,19.60
2019-02-17T08:42:13.399Z,23.10
2019-02-17T08:52:17.193Z,23.50
2019-02-17T09:02:20.974Z,22.90
2019-02-17T09:23:28.658Z,32.17
2019-02-17T09:33:32.704Z,30.17
2019-02-17T09:43:36.785Z,27.10
2019-02-17T09:53:41.352Z,23.57
2019-02-17T10:03:45.720Z,22.80
2019-02-17T10:13:49.762Z,25.37
2019-02-17T10:23:53.567Z,25.90
2019-02-17T10:33:57.646Z,27.57
2019-02-17T10:44:01.719Z,27.63
2019-02-17T10:54:05.771Z,22.40
2019-02-17T11:04:11.075Z,26.57
2019-02-17T11:14:15.709Z,25.07
2019-02-17T11:24:19.781Z,22.87
2019-02-17T11:34:23.898Z,25.67
2019-02-17T11:44:27.687Z,22.33
2019-02-17T11:54:31.459Z,17.83
2019-02-17T12:04:35.346Z,25.20
2019-02-17T12:14:39.631Z,20.17
2019-02-17T12:25:02.771Z,18.93
2019-02-17T12:35:07.676Z,18.33
2019-02-17T12:45:17.481Z,21.93
2019-02-17T12:55:19.898Z,21.60
2019-02-17T13:05:24.217Z,18.40
2019-02-17T13:15:28.074Z,22.97
2019-02-17T13:25:32.442Z,22.23
2019-02-17T13:35:36.769Z,20.90
2019-02-17T13:45:40.574Z,19.03
2019-02-17T13:55:44.868Z,18.60
2019-02-17T14:05:48.654Z,20.50
2019-02-17T14:15:52.843Z,20.13
2019-02-17T14:25:56.982Z,27.97
2019-02-17T14:36:00.765Z,21.27
2019-02-17T14:46:04.786Z,12.30
2019-02-17T14:56:08.814Z,16.00
2019-02-17T15:06:12.834Z,12.60
2019-02-17T15:16:16.621Z,11.07
2019-02-17T15:26:20.942Z,11.80
2019-02-17T15:36:24.718Z,7.23
2019-02-17T15:46:28.771Z,12.53
2019-02-17T15:56:33.630Z,14.97
2019-02-17T16:06:37.672Z,14.10
2019-02-17T16:16:42.153Z,14.47
2019-02-17T16:26:46.203Z,11.50
2019-02-17T16:36:50.965Z,9.33
2019-02-17T16:46:55.230Z,9.23
2019-02-17T16:57:20.090Z,9.73
2019-02-17T17:07:23.872Z,10.60
2019-02-17T17:17:28.171Z,10.70
2019-02-17T17:27:32.574Z,8.30
2019-02-17T17:37:36.776Z,10.63
2019-02-17T17:47:41.305Z,12.40
2019-02-17T17:57:45.198Z,9.83
2019-02-17T18:07:48.986Z,7.33
2019-02-17T18:17:54.814Z,9.57
2019-02-17T18:28:10.018Z,11.20
2019-02-17T18:38:17.878Z,8.73
2019-02-17T18:48:22.034Z,7.57
2019-02-17T18:58:26.505Z,7.90
2019-02-17T19:08:30.996Z,13.80
2019-02-17T19:18:35.283Z,12.20
2019-02-17T19:28:39.348Z,11.73
2019-02-17T19:38:43.606Z,9.73
2019-02-17T19:49:44.951Z,9.90
2019-02-17T20:10:52.782Z,11.67
2019-02-17T20:20:56.917Z,8.93
2019-02-17T20:31:01.275Z,12.13
2019-02-17T20:41:05.694Z,14.73
2019-02-17T20:51:09.754Z,11.60
2019-02-17T21:01:14.058Z,9.03
2019-02-17T21:11:18.581Z,9.47
2019-02-17T21:21:22.666Z,7.30
2019-02-17T21:31:27.715Z,9.00
2019-02-17T21:41:31.834Z,10.50
2019-02-17T21:51:35.917Z,8.50
2019-02-17T22:01:40.102Z,8.10
2019-02-17T22:11:43.917Z,9.57
2019-02-17T22:21:47.825Z,8.03
2019-02-17T22:31:51.890Z,8.13
2019-02-17T22:41:56.156Z,8.97
2019-02-17T22:52:00.603Z,8.20
2019-02-17T23:02:06.154Z,5.70
2019-02-17T23:12:10.210Z,6.13
2019-02-17T23:22:13.994Z,9.23
2019-02-17T23:32:18.190Z,7.43
2019-02-17T23:42:22.579Z,7.93
2019-02-17T23:52:26.350Z,7.60
